Strona główna
METAR-TAF:

METAR-TAF

Lotnisko :

Norwood Memorial Airport

Norwood, Massachusetts, Stany Zjednoczone

Szerokość geograficzna: 42-11-27N, Długość geograficzna: 071-10-26W, wysokość: 15 m

Aktualna obserwacja pogody

Raport powstał 29 minut temu, godzina 21:53 UTC
Wiatr 9 kt od zachód
Temperatura 27°C
Wilgotność 37%
Ciśnienie 1008 hPa
Widzialność: 16.1 km
bezchmurnie

METAR: KOWD 302153Z 26009KT 10SM CLR 27/11 A2978 RMK AO2 SLP085 T02670106

czas: 18:22 (22:22 UTC)


TAF: brakujący

Obserwacja i prognoza pogody dla ponad 4000 lotnisk (raport METAR i TAF).

Dostępne stacje oznaczono żółtymi i czerwonymi punktami na mapie.

Najedź kursorem aby zobaczyć nazwę stacji.

Kliknij aby zobaczyć obserwacje i prognozy pogody.

Aby zmienić mapę: kliknij na zielony przycisk z czarnym krzyżykiem, aby powiększyć; na zielony przycisk z myślnikiem, aby pomniejszyć; na zielone strzałki, aby przejść do map sąsiednich.


METAR-TAF: